sensor_id;sensor_type;location;lat;lon;timestamp;temperature;humidity
12907;DHT22;6521;50.498;8.474;2022-08-21T00:02:29;16.95;67.57
12907;DHT22;6521;50.498;8.474;2022-08-21T00:05:00;16.96;67.45
12907;DHT22;6521;50.498;8.474;2022-08-21T00:07:31;16.83;67.53
12907;DHT22;6521;50.498;8.474;2022-08-21T00:10:03;16.83;67.74
12907;DHT22;6521;50.498;8.474;2022-08-21T00:12:34;16.73;67.68
12907;DHT22;6521;50.498;8.474;2022-08-21T00:15:07;16.73;67.87
12907;DHT22;6521;50.498;8.474;2022-08-21T00:17:38;16.71;68.05
12907;DHT22;6521;50.498;8.474;2022-08-21T00:20:10;16.71;67.94
12907;DHT22;6521;50.498;8.474;2022-08-21T00:22:42;16.68;67.97
12907;DHT22;6521;50.498;8.474;2022-08-21T00:25:13;16.61;68.08
12907;DHT22;6521;50.498;8.474;2022-08-21T00:27:44;16.56;68.31
12907;DHT22;6521;50.498;8.474;2022-08-21T00:30:18;16.56;68.49
12907;DHT22;6521;50.498;8.474;2022-08-21T00:32:50;16.58;68.46
12907;DHT22;6521;50.498;8.474;2022-08-21T00:35:25;16.58;68.46
12907;DHT22;6521;50.498;8.474;2022-08-21T00:37:56;16.56;68.57
12907;DHT22;6521;50.498;8.474;2022-08-21T00:40:32;16.49;68.94
12907;DHT22;6521;50.498;8.474;2022-08-21T00:43:04;16.47;68.93
12907;DHT22;6521;50.498;8.474;2022-08-21T00:45:35;16.37;69.29
12907;DHT22;6521;50.498;8.474;2022-08-21T00:48:06;16.34;69.35
12907;DHT22;6521;50.498;8.474;2022-08-21T00:50:43;16.28;69.63
12907;DHT22;6521;50.498;8.474;2022-08-21T00:53:14;16.22;69.89
12907;DHT22;6521;50.498;8.474;2022-08-21T00:55:45;16.21;69.97
12907;DHT22;6521;50.498;8.474;2022-08-21T00:58:16;16.14;70.27
12907;DHT22;6521;50.498;8.474;2022-08-21T01:00:49;16.11;70.36
12907;DHT22;6521;50.498;8.474;2022-08-21T01:03:23;16.04;70.32
12907;DHT22;6521;50.498;8.474;2022-08-21T01:05:54;16.03;70.56
12907;DHT22;6521;50.498;8.474;2022-08-21T01:08:27;15.98;70.63
12907;DHT22;6521;50.498;8.474;2022-08-21T01:11:01;15.98;70.62
12907;DHT22;6521;50.498;8.474;2022-08-21T01:13:36;15.96;70.71
12907;DHT22;6521;50.498;8.474;2022-08-21T01:16:09;15.94;70.66
12907;DHT22;6521;50.498;8.474;2022-08-21T01:18:40;15.91;70.77
12907;DHT22;6521;50.498;8.474;2022-08-21T01:21:21;15.86;70.98
12907;DHT22;6521;50.498;8.474;2022-08-21T01:23:53;15.85;71.06
12907;DHT22;6521;50.498;8.474;2022-08-21T01:26:27;15.83;71.02
12907;DHT22;6521;50.498;8.474;2022-08-21T01:31:38;15.70;71.54
12907;DHT22;6521;50.498;8.474;2022-08-21T01:34:09;15.70;71.59
12907;DHT22;6521;50.498;8.474;2022-08-21T01:36:40;15.69;71.67
12907;DHT22;6521;50.498;8.474;2022-08-21T01:39:11;15.66;71.72
12907;DHT22;6521;50.498;8.474;2022-08-21T01:41:42;15.74;71.86
12907;DHT22;6521;50.498;8.474;2022-08-21T01:44:13;15.76;71.72
12907;DHT22;6521;50.498;8.474;2022-08-21T01:46:44;15.74;71.68
12907;DHT22;6521;50.498;8.474;2022-08-21T01:49:15;15.71;71.69
12907;DHT22;6521;50.498;8.474;2022-08-21T01:51:46;15.67;71.85
12907;DHT22;6521;50.498;8.474;2022-08-21T01:54:16;15.65;71.92
12907;DHT22;6521;50.498;8.474;2022-08-21T01:56:51;15.57;72.29
12907;DHT22;6521;50.498;8.474;2022-08-21T01:59:23;15.49;72.27
12907;DHT22;6521;50.498;8.474;2022-08-21T02:01:54;15.48;72.46
12907;DHT22;6521;50.498;8.474;2022-08-21T02:04:25;15.46;72.87
12907;DHT22;6521;50.498;8.474;2022-08-21T02:06:56;15.49;72.65
12907;DHT22;6521;50.498;8.474;2022-08-21T02:09:27;15.50;72.51
12907;DHT22;6521;50.498;8.474;2022-08-21T02:11:58;15.48;72.59
12907;DHT22;6521;50.498;8.474;2022-08-21T02:14:29;15.38;72.92
12907;DHT22;6521;50.498;8.474;2022-08-21T02:17:01;15.29;73.16
12907;DHT22;6521;50.498;8.474;2022-08-21T02:19:31;15.27;73.29
12907;DHT22;6521;50.498;8.474;2022-08-21T02:22:02;15.24;73.33
12907;DHT22;6521;50.498;8.474;2022-08-21T02:24:33;15.25;73.27
12907;DHT22;6521;50.498;8.474;2022-08-21T02:27:04;15.28;73.28
12907;DHT22;6521;50.498;8.474;2022-08-21T02:29:35;15.32;73.19
12907;DHT22;6521;50.498;8.474;2022-08-21T02:32:05;15.38;73.22
12907;DHT22;6521;50.498;8.474;2022-08-21T02:34:36;15.35;73.15
12907;DHT22;6521;50.498;8.474;2022-08-21T02:37:07;15.34;73.13
12907;DHT22;6521;50.498;8.474;2022-08-21T02:39:37;15.34;73.10
12907;DHT22;6521;50.498;8.474;2022-08-21T02:42:08;15.31;73.22
12907;DHT22;6521;50.498;8.474;2022-08-21T02:44:38;15.32;73.22
12907;DHT22;6521;50.498;8.474;2022-08-21T02:47:09;15.32;73.35
12907;DHT22;6521;50.498;8.474;2022-08-21T02:49:40;15.28;73.39
12907;DHT22;6521;50.498;8.474;2022-08-21T02:52:10;15.25;73.75
12907;DHT22;6521;50.498;8.474;2022-08-21T02:54:42;15.27;73.76
12907;DHT22;6521;50.498;8.474;2022-08-21T02:57:13;15.25;73.98
12907;DHT22;6521;50.498;8.474;2022-08-21T02:59:43;15.24;74.07
12907;DHT22;6521;50.498;8.474;2022-08-21T03:02:14;15.21;74.26
12907;DHT22;6521;50.498;8.474;2022-08-21T03:04:45;15.15;74.56
12907;DHT22;6521;50.498;8.474;2022-08-21T03:07:15;15.08;74.63
12907;DHT22;6521;50.498;8.474;2022-08-21T03:09:46;15.12;74.61
12907;DHT22;6521;50.498;8.474;2022-08-21T03:12:17;15.08;74.70
12907;DHT22;6521;50.498;8.474;2022-08-21T03:14:47;15.07;74.76
12907;DHT22;6521;50.498;8.474;2022-08-21T03:17:18;15.04;74.86
12907;DHT22;6521;50.498;8.474;2022-08-21T03:19:49;15.04;74.66
12907;DHT22;6521;50.498;8.474;2022-08-21T03:22:19;14.92;74.82
12907;DHT22;6521;50.498;8.474;2022-08-21T03:24:50;14.95;74.87
12907;DHT22;6521;50.498;8.474;2022-08-21T03:27:22;14.92;74.74
12907;DHT22;6521;50.498;8.474;2022-08-21T03:29:53;14.95;74.93
12907;DHT22;6521;50.498;8.474;2022-08-21T03:32:25;14.94;75.17
12907;DHT22;6521;50.498;8.474;2022-08-21T03:34:57;14.99;75.01
12907;DHT22;6521;50.498;8.474;2022-08-21T03:37:28;14.92;75.07
12907;DHT22;6521;50.498;8.474;2022-08-21T03:39:59;14.94;74.84
12907;DHT22;6521;50.498;8.474;2022-08-21T03:42:30;14.88;74.84
12907;DHT22;6521;50.498;8.474;2022-08-21T03:45:01;14.84;74.90
12907;DHT22;6521;50.498;8.474;2022-08-21T03:47:33;14.80;75.18
12907;DHT22;6521;50.498;8.474;2022-08-21T03:50:04;14.83;75.14
12907;DHT22;6521;50.498;8.474;2022-08-21T03:52:35;14.77;75.07
12907;DHT22;6521;50.498;8.474;2022-08-21T03:55:06;14.78;74.75
12907;DHT22;6521;50.498;8.474;2022-08-21T03:57:37;14.74;74.66
12907;DHT22;6521;50.498;8.474;2022-08-21T04:00:09;14.73;74.69
12907;DHT22;6521;50.498;8.474;2022-08-21T04:02:42;14.69;74.81
12907;DHT22;6521;50.498;8.474;2022-08-21T04:05:16;14.67;75.08
12907;DHT22;6521;50.498;8.474;2022-08-21T04:07:58;14.63;75.23
12907;DHT22;6521;50.498;8.474;2022-08-21T04:10:32;14.61;75.25
12907;DHT22;6521;50.498;8.474;2022-08-21T04:13:04;14.59;75.37
12907;DHT22;6521;50.498;8.474;2022-08-21T04:15:35;14.50;75.88
12907;DHT22;6521;50.498;8.474;2022-08-21T04:18:06;14.49;75.80
12907;DHT22;6521;50.498;8.474;2022-08-21T04:20:39;14.49;75.93
12907;DHT22;6521;50.498;8.474;2022-08-21T04:23:11;14.43;76.28
12907;DHT22;6521;50.498;8.474;2022-08-21T04:25:42;14.40;76.20
12907;DHT22;6521;50.498;8.474;2022-08-21T04:28:13;14.37;76.27
12907;DHT22;6521;50.498;8.474;2022-08-21T04:30:44;14.33;76.35
12907;DHT22;6521;50.498;8.474;2022-08-21T04:33:16;14.29;76.52
12907;DHT22;6521;50.498;8.474;2022-08-21T04:35:48;14.22;76.77
12907;DHT22;6521;50.498;8.474;2022-08-21T04:38:20;14.18;76.83
12907;DHT22;6521;50.498;8.474;2022-08-21T04:40:51;14.09;77.04
12907;DHT22;6521;50.498;8.474;2022-08-21T04:43:23;14.11;77.20
12907;DHT22;6521;50.498;8.474;2022-08-21T04:45:53;14.22;77.11
12907;DHT22;6521;50.498;8.474;2022-08-21T04:48:25;14.32;76.76
12907;DHT22;6521;50.498;8.474;2022-08-21T04:53:43;14.34;76.18
12907;DHT22;6521;50.498;8.474;2022-08-21T04:56:20;14.39;76.01
12907;DHT22;6521;50.498;8.474;2022-08-21T04:58:55;14.44;75.67
12907;DHT22;6521;50.498;8.474;2022-08-21T05:01:29;14.46;75.71
12907;DHT22;6521;50.498;8.474;2022-08-21T05:04:02;14.51;75.38
12907;DHT22;6521;50.498;8.474;2022-08-21T05:06:36;14.56;75.03
12907;DHT22;6521;50.498;8.474;2022-08-21T05:09:09;14.56;74.90
12907;DHT22;6521;50.498;8.474;2022-08-21T05:11:40;14.60;74.65
12907;DHT22;6521;50.498;8.474;2022-08-21T05:14:12;14.63;74.67
12907;DHT22;6521;50.498;8.474;2022-08-21T05:16:43;14.71;74.80
12907;DHT22;6521;50.498;8.474;2022-08-21T05:19:14;14.74;74.73
12907;DHT22;6521;50.498;8.474;2022-08-21T05:21:45;14.74;74.33
12907;DHT22;6521;50.498;8.474;2022-08-21T05:24:17;14.78;74.78
12907;DHT22;6521;50.498;8.474;2022-08-21T05:26:48;14.81;74.70
12907;DHT22;6521;50.498;8.474;2022-08-21T05:29:19;14.87;73.56
12907;DHT22;6521;50.498;8.474;2022-08-21T05:31:51;14.84;73.74
12907;DHT22;6521;50.498;8.474;2022-08-21T05:34:23;14.87;73.71
12907;DHT22;6521;50.498;8.474;2022-08-21T05:36:54;14.94;73.62
12907;DHT22;6521;50.498;8.474;2022-08-21T05:39:25;14.92;73.50
12907;DHT22;6521;50.498;8.474;2022-08-21T05:41:56;14.95;73.61
12907;DHT22;6521;50.498;8.474;2022-08-21T05:44:26;14.92;73.50
12907;DHT22;6521;50.498;8.474;2022-08-21T05:47:05;14.90;73.55
12907;DHT22;6521;50.498;8.474;2022-08-21T05:49:37;14.87;73.59
12907;DHT22;6521;50.498;8.474;2022-08-21T05:52:08;14.90;73.92
12907;DHT22;6521;50.498;8.474;2022-08-21T05:54:39;14.91;74.08
12907;DHT22;6521;50.498;8.474;2022-08-21T05:57:10;14.98;73.65
12907;DHT22;6521;50.498;8.474;2022-08-21T05:59:41;14.98;73.82
12907;DHT22;6521;50.498;8.474;2022-08-21T06:02:12;15.04;73.50
12907;DHT22;6521;50.498;8.474;2022-08-21T06:04:43;15.02;73.26
12907;DHT22;6521;50.498;8.474;2022-08-21T06:07:14;15.04;73.07
12907;DHT22;6521;50.498;8.474;2022-08-21T06:09:45;15.07;72.92
12907;DHT22;6521;50.498;8.474;2022-08-21T06:12:17;15.14;72.71
12907;DHT22;6521;50.498;8.474;2022-08-21T06:14:47;15.22;72.88
12907;DHT22;6521;50.498;8.474;2022-08-21T06:17:18;15.31;72.62
12907;DHT22;6521;50.498;8.474;2022-08-21T06:19:53;15.42;71.98
12907;DHT22;6521;50.498;8.474;2022-08-21T06:22:24;15.46;71.34
12907;DHT22;6521;50.498;8.474;2022-08-21T06:24:55;15.53;71.18
12907;DHT22;6521;50.498;8.474;2022-08-21T06:27:26;15.69;70.84
12907;DHT22;6521;50.498;8.474;2022-08-21T06:29:57;15.71;71.11
12907;DHT22;6521;50.498;8.474;2022-08-21T06:32:28;15.82;70.50
12907;DHT22;6521;50.498;8.474;2022-08-21T06:34:59;15.87;69.86
12907;DHT22;6521;50.498;8.474;2022-08-21T06:37:30;15.91;69.71
12907;DHT22;6521;50.498;8.474;2022-08-21T06:40:01;15.97;69.70
12907;DHT22;6521;50.498;8.474;2022-08-21T06:42:32;16.07;69.40
12907;DHT22;6521;50.498;8.474;2022-08-21T06:45:04;16.13;69.09
12907;DHT22;6521;50.498;8.474;2022-08-21T06:47:35;16.22;68.77
12907;DHT22;6521;50.498;8.474;2022-08-21T06:50:06;16.28;68.83
12907;DHT22;6521;50.498;8.474;2022-08-21T06:52:40;16.37;68.46
12907;DHT22;6521;50.498;8.474;2022-08-21T06:55:11;16.45;68.46
12907;DHT22;6521;50.498;8.474;2022-08-21T06:57:43;16.51;67.91
12907;DHT22;6521;50.498;8.474;2022-08-21T07:00:14;16.62;67.83
12907;DHT22;6521;50.498;8.474;2022-08-21T07:02:45;16.71;67.67
12907;DHT22;6521;50.498;8.474;2022-08-21T07:05:16;16.77;67.84
12907;DHT22;6521;50.498;8.474;2022-08-21T07:07:47;16.80;67.74
12907;DHT22;6521;50.498;8.474;2022-08-21T07:10:18;16.87;67.48
12907;DHT22;6521;50.498;8.474;2022-08-21T07:12:50;17.02;67.00
12907;DHT22;6521;50.498;8.474;2022-08-21T07:15:21;17.10;67.10
12907;DHT22;6521;50.498;8.474;2022-08-21T07:17:51;17.16;67.08
12907;DHT22;6521;50.498;8.474;2022-08-21T07:20:22;17.26;67.13
12907;DHT22;6521;50.498;8.474;2022-08-21T07:22:53;17.34;67.06
12907;DHT22;6521;50.498;8.474;2022-08-21T07:25:25;17.45;66.95
12907;DHT22;6521;50.498;8.474;2022-08-21T07:27:55;17.55;66.54
12907;DHT22;6521;50.498;8.474;2022-08-21T07:30:26;17.62;66.58
12907;DHT22;6521;50.498;8.474;2022-08-21T07:32:57;17.71;65.76
12907;DHT22;6521;50.498;8.474;2022-08-21T07:35:28;17.79;65.69
12907;DHT22;6521;50.498;8.474;2022-08-21T07:37:59;17.89;65.45
12907;DHT22;6521;50.498;8.474;2022-08-21T07:40:30;18.01;65.71
12907;DHT22;6521;50.498;8.474;2022-08-21T07:43:00;18.12;64.97
12907;DHT22;6521;50.498;8.474;2022-08-21T07:45:32;18.17;64.39
12907;DHT22;6521;50.498;8.474;2022-08-21T07:48:04;18.26;65.04
12907;DHT22;6521;50.498;8.474;2022-08-21T07:50:35;18.36;64.68
12907;DHT22;6521;50.498;8.474;2022-08-21T07:53:06;18.47;64.04
12907;DHT22;6521;50.498;8.474;2022-08-21T07:55:37;18.56;63.70
12907;DHT22;6521;50.498;8.474;2022-08-21T07:58:08;18.68;63.82
12907;DHT22;6521;50.498;8.474;2022-08-21T08:00:40;18.80;62.99
12907;DHT22;6521;50.498;8.474;2022-08-21T08:03:11;18.97;62.58
12907;DHT22;6521;50.498;8.474;2022-08-21T08:05:42;19.02;62.73
12907;DHT22;6521;50.498;8.474;2022-08-21T08:08:13;19.19;62.97
12907;DHT22;6521;50.498;8.474;2022-08-21T08:10:44;19.33;62.03
12907;DHT22;6521;50.498;8.474;2022-08-21T08:13:16;19.45;61.29
12907;DHT22;6521;50.498;8.474;2022-08-21T08:15:47;19.52;61.21
12907;DHT22;6521;50.498;8.474;2022-08-21T08:18:18;19.63;60.72
12907;DHT22;6521;50.498;8.474;2022-08-21T08:20:49;19.74;60.35
12907;DHT22;6521;50.498;8.474;2022-08-21T08:23:20;19.87;59.70
12907;DHT22;6521;50.498;8.474;2022-08-21T08:25:51;20.07;60.62
12907;DHT22;6521;50.498;8.474;2022-08-21T08:28:22;20.28;58.45
12907;DHT22;6521;50.498;8.474;2022-08-21T08:30:53;20.48;56.69
12907;DHT22;6521;50.498;8.474;2022-08-21T08:33:24;20.62;56.26
12907;DHT22;6521;50.498;8.474;2022-08-21T08:35:55;20.72;56.89
12907;DHT22;6521;50.498;8.474;2022-08-21T08:38:26;20.89;57.35
12907;DHT22;6521;50.498;8.474;2022-08-21T08:41:09;21.02;56.93
12907;DHT22;6521;50.498;8.474;2022-08-21T08:43:50;21.19;55.85
12907;DHT22;6521;50.498;8.474;2022-08-21T08:46:38;21.51;54.31
12907;DHT22;6521;50.498;8.474;2022-08-21T08:49:36;21.77;51.62
12907;DHT22;6521;50.498;8.474;2022-08-21T08:52:21;21.95;51.03
12907;DHT22;6521;50.498;8.474;2022-08-21T08:55:41;22.06;51.33
12907;DHT22;6521;50.498;8.474;2022-08-21T08:58:19;21.95;51.67
12907;DHT22;6521;50.498;8.474;2022-08-21T09:00:52;21.99;50.31
12907;DHT22;6521;50.498;8.474;2022-08-21T09:03:26;22.06;51.15
12907;DHT22;6521;50.498;8.474;2022-08-21T09:06:09;22.43;48.48
12907;DHT22;6521;50.498;8.474;2022-08-21T09:09:02;22.60;48.26
12907;DHT22;6521;50.498;8.474;2022-08-21T09:11:44;22.44;48.47
12907;DHT22;6521;50.498;8.474;2022-08-21T09:14:38;22.77;47.91
12907;DHT22;6521;50.498;8.474;2022-08-21T09:17:23;23.11;47.77
12907;DHT22;6521;50.498;8.474;2022-08-21T09:20:12;23.33;46.40
12907;DHT22;6521;50.498;8.474;2022-08-21T09:23:14;23.02;46.15
12907;DHT22;6521;50.498;8.474;2022-08-21T09:28:44;22.46;48.06
12907;DHT22;6521;50.498;8.474;2022-08-21T09:31:30;22.94;48.70
12907;DHT22;6521;50.498;8.474;2022-08-21T09:34:08;23.60;45.82
12907;DHT22;6521;50.498;8.474;2022-08-21T09:36:49;24.16;43.06
12907;DHT22;6521;50.498;8.474;2022-08-21T09:39:29;24.51;42.50
12907;DHT22;6521;50.498;8.474;2022-08-21T09:42:04;24.89;42.46
12907;DHT22;6521;50.498;8.474;2022-08-21T09:44:38;24.90;41.93
12907;DHT22;6521;50.498;8.474;2022-08-21T09:47:12;25.37;40.33
12907;DHT22;6521;50.498;8.474;2022-08-21T09:49:43;25.64;38.33
12907;DHT22;6521;50.498;8.474;2022-08-21T09:52:22;25.84;37.51
12907;DHT22;6521;50.498;8.474;2022-08-21T09:54:55;25.80;36.94
12907;DHT22;6521;50.498;8.474;2022-08-21T09:57:30;25.75;37.50
12907;DHT22;6521;50.498;8.474;2022-08-21T10:00:25;26.31;37.77
12907;DHT22;6521;50.498;8.474;2022-08-21T10:03:15;26.57;36.86
12907;DHT22;6521;50.498;8.474;2022-08-21T10:08:24;26.08;36.20
12907;DHT22;6521;50.498;8.474;2022-08-21T10:11:01;26.88;36.03
12907;DHT22;6521;50.498;8.474;2022-08-21T10:19:21;28.01;33.91
12907;DHT22;6521;50.498;8.474;2022-08-21T10:22:03;28.08;34.73
12907;DHT22;6521;50.498;8.474;2022-08-21T10:24:57;28.43;33.16
12907;DHT22;6521;50.498;8.474;2022-08-21T10:27:57;29.24;32.20
12907;DHT22;6521;50.498;8.474;2022-08-21T10:30:50;29.31;31.35
12907;DHT22;6521;50.498;8.474;2022-08-21T10:33:46;28.31;32.17
12907;DHT22;6521;50.498;8.474;2022-08-21T10:36:32;28.27;32.69
12907;DHT22;6521;50.498;8.474;2022-08-21T10:39:25;28.95;31.14
12907;DHT22;6521;50.498;8.474;2022-08-21T10:42:20;29.37;32.05
12907;DHT22;6521;50.498;8.474;2022-08-21T10:48:12;30.49;29.56
12907;DHT22;6521;50.498;8.474;2022-08-21T10:50:53;30.52;28.69
12907;DHT22;6521;50.498;8.474;2022-08-21T10:53:36;30.67;29.45
12907;DHT22;6521;50.498;8.474;2022-08-21T10:56:19;30.83;29.39
12907;DHT22;6521;50.498;8.474;2022-08-21T11:01:45;30.76;29.02
12907;DHT22;6521;50.498;8.474;2022-08-21T11:04:25;30.83;28.66
12907;DHT22;6521;50.498;8.474;2022-08-21T11:07:06;31.20;27.92
12907;DHT22;6521;50.498;8.474;2022-08-21T11:09:39;30.80;27.33
12907;DHT22;6521;50.498;8.474;2022-08-21T11:18:36;31.18;29.21
12907;DHT22;6521;50.498;8.474;2022-08-21T11:21:43;31.41;28.07
12907;DHT22;6521;50.498;8.474;2022-08-21T11:24:28;31.79;27.34
12907;DHT22;6521;50.498;8.474;2022-08-21T11:27:24;32.02;26.98
12907;DHT22;6521;50.498;8.474;2022-08-21T11:29:58;32.02;26.60
12907;DHT22;6521;50.498;8.474;2022-08-21T11:36:05;31.24;27.33
12907;DHT22;6521;50.498;8.474;2022-08-21T11:38:41;30.69;27.42
12907;DHT22;6521;50.498;8.474;2022-08-21T11:41:31;31.07;27.43
12907;DHT22;6521;50.498;8.474;2022-08-21T11:46:49;30.36;27.50
12907;DHT22;6521;50.498;8.474;2022-08-21T11:49:53;31.01;28.37
12907;DHT22;6521;50.498;8.474;2022-08-21T11:52:38;31.24;26.97
12907;DHT22;6521;50.498;8.474;2022-08-21T11:55:40;31.59;26.93
12907;DHT22;6521;50.498;8.474;2022-08-21T11:58:22;32.26;25.53
12907;DHT22;6521;50.498;8.474;2022-08-21T12:01:05;32.24;26.68
12907;DHT22;6521;50.498;8.474;2022-08-21T12:03:40;32.24;26.24
12907;DHT22;6521;50.498;8.474;2022-08-21T12:06:14;31.70;26.88
12907;DHT22;6521;50.498;8.474;2022-08-21T12:08:57;32.19;26.57
12907;DHT22;6521;50.498;8.474;2022-08-21T12:11:28;32.74;25.98
12907;DHT22;6521;50.498;8.474;2022-08-21T12:14:12;33.16;24.78
12907;DHT22;6521;50.498;8.474;2022-08-21T12:16:46;32.85;26.03
12907;DHT22;6521;50.498;8.474;2022-08-21T12:24:32;32.31;26.17
12907;DHT22;6521;50.498;8.474;2022-08-21T12:27:27;31.92;25.94
12907;DHT22;6521;50.498;8.474;2022-08-21T12:30:05;32.74;24.79
12907;DHT22;6521;50.498;8.474;2022-08-21T12:35:21;32.74;24.32
12907;DHT22;6521;50.498;8.474;2022-08-21T12:38:07;33.05;25.05
12907;DHT22;6521;50.498;8.474;2022-08-21T12:40:41;32.91;24.29
12907;DHT22;6521;50.498;8.474;2022-08-21T12:43:19;32.51;24.35
12907;DHT22;6521;50.498;8.474;2022-08-21T12:45:50;32.20;24.78
12907;DHT22;6521;50.498;8.474;2022-08-21T12:48:41;32.10;25.38
12907;DHT22;6521;50.498;8.474;2022-08-21T12:51:16;31.24;25.46
12907;DHT22;6521;50.498;8.474;2022-08-21T12:53:53;31.48;26.06
12907;DHT22;6521;50.498;8.474;2022-08-21T12:56:26;32.10;25.38
12907;DHT22;6521;50.498;8.474;2022-08-21T12:59:04;32.13;25.53
12907;DHT22;6521;50.498;8.474;2022-08-21T13:01:38;32.00;25.43
12907;DHT22;6521;50.498;8.474;2022-08-21T13:04:13;31.76;26.37
12907;DHT22;6521;50.498;8.474;2022-08-21T13:06:51;32.61;25.62
12907;DHT22;6521;50.498;8.474;2022-08-21T13:09:28;32.47;24.97
12907;DHT22;6521;50.498;8.474;2022-08-21T13:11:59;32.76;25.12
12907;DHT22;6521;50.498;8.474;2022-08-21T13:14:36;32.95;23.52
12907;DHT22;6521;50.498;8.474;2022-08-21T13:17:09;32.75;23.56
12907;DHT22;6521;50.498;8.474;2022-08-21T13:19:40;32.71;24.60
12907;DHT22;6521;50.498;8.474;2022-08-21T13:22:13;32.28;24.38
12907;DHT22;6521;50.498;8.474;2022-08-21T13:24:47;31.70;24.24
12907;DHT22;6521;50.498;8.474;2022-08-21T13:27:27;31.01;25.65
12907;DHT22;6521;50.498;8.474;2022-08-21T13:30:13;30.69;25.59
12907;DHT22;6521;50.498;8.474;2022-08-21T13:33:00;30.23;25.86
12907;DHT22;6521;50.498;8.474;2022-08-21T13:35:45;29.97;26.25
12907;DHT22;6521;50.498;8.474;2022-08-21T13:38:20;30.18;26.49
12907;DHT22;6521;50.498;8.474;2022-08-21T13:40:55;30.25;25.49
12907;DHT22;6521;50.498;8.474;2022-08-21T13:43:31;30.31;25.49
12907;DHT22;6521;50.498;8.474;2022-08-21T13:46:09;30.06;26.31
12907;DHT22;6521;50.498;8.474;2022-08-21T13:48:41;30.09;26.45
12907;DHT22;6521;50.498;8.474;2022-08-21T13:51:14;30.73;25.75
12907;DHT22;6521;50.498;8.474;2022-08-21T13:53:50;30.74;25.43
12907;DHT22;6521;50.498;8.474;2022-08-21T13:56:31;31.01;25.00
12907;DHT22;6521;50.498;8.474;2022-08-21T13:59:03;30.44;25.39
12907;DHT22;6521;50.498;8.474;2022-08-21T14:02:19;30.36;26.94
12907;DHT22;6521;50.498;8.474;2022-08-21T14:04:55;30.57;26.02
12907;DHT22;6521;50.498;8.474;2022-08-21T14:07:36;30.80;25.22
12907;DHT22;6521;50.498;8.474;2022-08-21T14:10:22;30.77;25.47
12907;DHT22;6521;50.498;8.474;2022-08-21T14:12:59;30.88;25.82
12907;DHT22;6521;50.498;8.474;2022-08-21T14:15:33;30.79;25.52
12907;DHT22;6521;50.498;8.474;2022-08-21T14:18:16;30.87;25.25
12907;DHT22;6521;50.498;8.474;2022-08-21T14:20:47;30.88;24.64
12907;DHT22;6521;50.498;8.474;2022-08-21T14:23:25;30.62;25.59
12907;DHT22;6521;50.498;8.474;2022-08-21T14:26:00;30.64;25.20
12907;DHT22;6521;50.498;8.474;2022-08-21T14:28:40;30.01;25.32
12907;DHT22;6521;50.498;8.474;2022-08-21T14:31:18;29.91;26.05
12907;DHT22;6521;50.498;8.474;2022-08-21T14:33:50;30.06;26.35
12907;DHT22;6521;50.498;8.474;2022-08-21T14:36:20;30.39;25.03
12907;DHT22;6521;50.498;8.474;2022-08-21T14:38:51;30.62;25.91
12907;DHT22;6521;50.498;8.474;2022-08-21T14:41:24;30.55;26.11
12907;DHT22;6521;50.498;8.474;2022-08-21T14:43:57;30.11;25.70
12907;DHT22;6521;50.498;8.474;2022-08-21T14:46:30;29.88;26.35
12907;DHT22;6521;50.498;8.474;2022-08-21T14:49:03;29.94;26.39
12907;DHT22;6521;50.498;8.474;2022-08-21T14:51:33;29.61;25.92
12907;DHT22;6521;50.498;8.474;2022-08-21T14:54:05;29.67;25.95
12907;DHT22;6521;50.498;8.474;2022-08-21T14:56:36;29.98;26.36
12907;DHT22;6521;50.498;8.474;2022-08-21T14:59:08;30.12;26.01
12907;DHT22;6521;50.498;8.474;2022-08-21T15:01:39;30.60;26.25
12907;DHT22;6521;50.498;8.474;2022-08-21T15:04:10;31.10;25.54
12907;DHT22;6521;50.498;8.474;2022-08-21T15:06:41;31.34;23.80
12907;DHT22;6521;50.498;8.474;2022-08-21T15:09:12;31.22;24.47
12907;DHT22;6521;50.498;8.474;2022-08-21T15:11:42;30.76;24.80
12907;DHT22;6521;50.498;8.474;2022-08-21T15:14:20;30.60;25.46
12907;DHT22;6521;50.498;8.474;2022-08-21T15:16:52;30.79;25.42
12907;DHT22;6521;50.498;8.474;2022-08-21T15:19:22;30.98;25.03
12907;DHT22;6521;50.498;8.474;2022-08-21T15:21:53;31.12;24.89
12907;DHT22;6521;50.498;8.474;2022-08-21T15:24:24;30.97;25.22
12907;DHT22;6521;50.498;8.474;2022-08-21T15:26:56;30.73;25.34
12907;DHT22;6521;50.498;8.474;2022-08-21T15:29:26;31.01;24.62
12907;DHT22;6521;50.498;8.474;2022-08-21T15:32:00;30.95;24.74
12907;DHT22;6521;50.498;8.474;2022-08-21T15:34:31;30.73;25.20
12907;DHT22;6521;50.498;8.474;2022-08-21T15:37:02;30.33;25.54
12907;DHT22;6521;50.498;8.474;2022-08-21T15:39:32;30.43;25.88
12907;DHT22;6521;50.498;8.474;2022-08-21T15:42:03;30.43;25.91
12907;DHT22;6521;50.498;8.474;2022-08-21T15:44:35;30.53;25.19
12907;DHT22;6521;50.498;8.474;2022-08-21T15:47:18;30.60;25.16
12907;DHT22;6521;50.498;8.474;2022-08-21T15:49:50;30.69;25.15
12907;DHT22;6521;50.498;8.474;2022-08-21T15:52:22;30.64;25.62
12907;DHT22;6521;50.498;8.474;2022-08-21T15:54:53;30.31;26.51
12907;DHT22;6521;50.498;8.474;2022-08-21T15:57:24;30.31;26.09
12907;DHT22;6521;50.498;8.474;2022-08-21T16:00:00;30.09;25.99
12907;DHT22;6521;50.498;8.474;2022-08-21T16:02:48;29.70;26.58
12907;DHT22;6521;50.498;8.474;2022-08-21T16:05:20;29.29;26.95
12907;DHT22;6521;50.498;8.474;2022-08-21T16:07:52;29.30;27.22
12907;DHT22;6521;50.498;8.474;2022-08-21T16:10:23;29.03;27.34
12907;DHT22;6521;50.498;8.474;2022-08-21T16:12:58;28.80;27.53
12907;DHT22;6521;50.498;8.474;2022-08-21T16:15:31;28.72;27.58
12907;DHT22;6521;50.498;8.474;2022-08-21T16:18:02;28.76;27.28
12907;DHT22;6521;50.498;8.474;2022-08-21T16:20:34;28.57;28.30
12907;DHT22;6521;50.498;8.474;2022-08-21T16:23:05;28.38;28.45
12907;DHT22;6521;50.498;8.474;2022-08-21T16:25:39;28.24;28.44
12907;DHT22;6521;50.498;8.474;2022-08-21T16:28:13;28.21;28.95
12907;DHT22;6521;50.498;8.474;2022-08-21T16:30:47;28.06;29.40
12907;DHT22;6521;50.498;8.474;2022-08-21T16:33:26;27.77;29.87
12907;DHT22;6521;50.498;8.474;2022-08-21T16:35:59;27.59;29.79
12907;DHT22;6521;50.498;8.474;2022-08-21T16:38:30;27.34;29.93
12907;DHT22;6521;50.498;8.474;2022-08-21T16:41:04;27.27;30.48
12907;DHT22;6521;50.498;8.474;2022-08-21T16:43:35;27.34;30.66
12907;DHT22;6521;50.498;8.474;2022-08-21T16:46:10;27.37;30.30
12907;DHT22;6521;50.498;8.474;2022-08-21T16:48:42;27.38;29.90
12907;DHT22;6521;50.498;8.474;2022-08-21T16:51:14;27.38;30.05
12907;DHT22;6521;50.498;8.474;2022-08-21T16:53:45;27.29;30.33
12907;DHT22;6521;50.498;8.474;2022-08-21T16:56:16;27.24;31.15
12907;DHT22;6521;50.498;8.474;2022-08-21T16:58:48;27.07;30.42
12907;DHT22;6521;50.498;8.474;2022-08-21T17:01:23;26.92;31.03
12907;DHT22;6521;50.498;8.474;2022-08-21T17:03:54;26.88;30.62
12907;DHT22;6521;50.498;8.474;2022-08-21T17:06:25;26.92;30.57
12907;DHT22;6521;50.498;8.474;2022-08-21T17:08:57;26.88;30.90
12907;DHT22;6521;50.498;8.474;2022-08-21T17:11:31;26.76;32.45
12907;DHT22;6521;50.498;8.474;2022-08-21T17:14:08;26.71;32.03
12907;DHT22;6521;50.498;8.474;2022-08-21T17:16:41;26.56;31.39